createdAt,value
2018-11-28T00:01:27.653Z,64.83
2018-11-28T00:03:55.788Z,65.34
2018-11-28T00:06:23.935Z,65.04
2018-11-28T00:08:52.080Z,65.15
2018-11-28T00:11:20.262Z,65.09
2018-11-28T00:13:48.412Z,64.99
2018-11-28T00:16:16.591Z,65.11
2018-11-28T00:18:44.725Z,65.80
2018-11-28T00:21:12.885Z,65.16
2018-11-28T00:23:41.067Z,65.76
2018-11-28T00:26:09.230Z,65.14
2018-11-28T00:28:37.369Z,65.66
2018-11-28T00:31:05.560Z,65.21
2018-11-28T00:33:33.725Z,65.66
2018-11-28T00:36:01.873Z,65.29
2018-11-28T00:38:30.007Z,65.68
2018-11-28T00:40:58.144Z,65.84
2018-11-28T00:43:26.296Z,65.68
2018-11-28T00:45:54.470Z,65.75
2018-11-28T00:48:22.627Z,65.78
2018-11-28T00:50:50.778Z,65.96
2018-11-28T00:53:18.945Z,66.31
2018-11-28T00:55:48.548Z,66.55
2018-11-28T00:58:15.248Z,66.16
2018-11-28T01:00:43.407Z,66.44
2018-11-28T01:03:11.540Z,66.37
2018-11-28T01:05:39.676Z,66.17
2018-11-28T01:08:07.843Z,66.09
2018-11-28T01:10:36.018Z,66.41
2018-11-28T01:13:04.149Z,66.41
2018-11-28T01:15:32.312Z,66.48
2018-11-28T01:18:00.497Z,66.87
2018-11-28T01:20:28.669Z,66.21
2018-11-28T01:22:56.861Z,66.62
2018-11-28T01:25:25.003Z,66.65
2018-11-28T01:27:53.158Z,66.68
2018-11-28T01:30:22.328Z,66.54
2018-11-28T01:32:50.537Z,66.54
2018-11-28T01:35:19.516Z,67.06
2018-11-28T01:37:47.740Z,67.27
2018-11-28T01:40:20.876Z,66.92
2018-11-28T01:42:49.054Z,66.96
2018-11-28T01:45:19.176Z,67.52
2018-11-28T01:47:47.421Z,66.98
2018-11-28T01:50:16.492Z,66.84
2018-11-28T01:52:44.653Z,66.65
2018-11-28T01:55:17.756Z,66.32
2018-11-28T01:57:45.929Z,66.96
2018-11-28T02:00:20.398Z,66.80
2018-11-28T02:02:50.878Z,66.80
2018-11-28T02:05:19.064Z,66.86
2018-11-28T02:07:47.201Z,67.17
2018-11-28T02:10:16.072Z,67.06
2018-11-28T02:12:44.212Z,67.17
2018-11-28T02:15:15.421Z,67.00
2018-11-28T02:17:43.591Z,66.85
2018-11-28T02:20:12.802Z,66.86
2018-11-28T02:22:40.969Z,67.31
2018-11-28T02:25:11.412Z,67.04
2018-11-28T02:27:39.568Z,66.90
2018-11-28T02:30:11.463Z,67.39
2018-11-28T02:32:39.640Z,66.84
2018-11-28T02:35:09.327Z,67.17
2018-11-28T02:37:37.812Z,67.69
2018-11-28T02:40:07.837Z,67.53
2018-11-28T02:42:36.009Z,67.18
2018-11-28T02:45:05.821Z,67.53
2018-11-28T02:47:33.960Z,67.83
2018-11-28T02:50:02.114Z,67.02
2018-11-28T02:52:30.266Z,67.74
2018-11-28T02:54:58.451Z,67.57
2018-11-28T02:57:26.621Z,68.01
2018-11-28T02:59:54.766Z,67.45
2018-11-28T03:02:22.922Z,67.27
2018-11-28T03:04:51.091Z,67.89
2018-11-28T03:07:19.257Z,67.39
2018-11-28T03:09:47.406Z,67.65
2018-11-28T03:12:15.534Z,67.85
2018-11-28T03:14:43.694Z,67.92
2018-11-28T03:17:17.317Z,67.45
2018-11-28T03:19:45.482Z,67.65
2018-11-28T03:22:13.624Z,67.84
2018-11-28T03:24:41.765Z,67.63
2018-11-28T03:27:09.966Z,68.58
2018-11-28T03:29:38.157Z,68.61
2018-11-28T03:32:06.338Z,68.05
2018-11-28T03:34:34.469Z,68.10
2018-11-28T03:37:02.626Z,68.13
2018-11-28T03:39:30.825Z,68.31
2018-11-28T03:41:58.981Z,67.96
2018-11-28T03:44:27.138Z,68.46
2018-11-28T03:46:55.304Z,68.73
2018-11-28T03:49:23.461Z,68.75
2018-11-28T03:51:51.642Z,68.72
2018-11-28T03:54:19.795Z,68.88
2018-11-28T03:56:47.925Z,68.51
2018-11-28T03:59:16.073Z,68.30
2018-11-28T04:01:44.222Z,68.60
2018-11-28T04:04:12.370Z,68.87
2018-11-28T04:06:40.597Z,68.38
2018-11-28T04:09:08.883Z,68.92
2018-11-28T04:11:36.961Z,68.28
2018-11-28T04:14:05.150Z,69.04
2018-11-28T04:16:33.344Z,69.31
2018-11-28T04:19:04.496Z,68.81
2018-11-28T04:21:32.710Z,68.48
2018-11-28T04:24:01.137Z,69.05
2018-11-28T04:26:29.299Z,68.90
2018-11-28T04:28:57.477Z,68.69
2018-11-28T04:31:25.631Z,69.22
2018-11-28T04:33:53.833Z,69.24
2018-11-28T04:36:21.990Z,68.71
2018-11-28T04:38:50.136Z,69.41
2018-11-28T04:41:18.283Z,68.88
2018-11-28T04:43:46.453Z,69.15
2018-11-28T04:46:14.618Z,69.54
2018-11-28T04:48:42.768Z,69.28
2018-11-28T04:51:10.919Z,69.46
2018-11-28T04:53:39.086Z,69.40
2018-11-28T04:56:07.229Z,68.89
2018-11-28T04:58:35.409Z,69.07
2018-11-28T05:01:03.567Z,69.24
2018-11-28T05:03:31.734Z,69.34
2018-11-28T05:05:59.876Z,70.38
2018-11-28T05:08:28.070Z,70.04
2018-11-28T05:10:56.261Z,69.54
2018-11-28T05:13:24.673Z,69.26
2018-11-28T05:15:52.838Z,69.94
2018-11-28T05:18:20.988Z,69.92
2018-11-28T05:20:49.154Z,69.77
2018-11-28T05:23:17.422Z,70.23
2018-11-28T05:25:45.619Z,69.63
2018-11-28T05:28:14.557Z,69.82
2018-11-28T05:30:42.696Z,69.86
2018-11-28T05:33:11.010Z,69.89
2018-11-28T05:35:40.207Z,69.95
2018-11-28T05:38:12.101Z,70.59
2018-11-28T05:40:40.613Z,69.88
2018-11-28T05:43:08.850Z,69.77
2018-11-28T05:45:37.281Z,69.39
2018-11-28T05:48:05.849Z,69.92
2018-11-28T05:50:34.170Z,69.37
2018-11-28T05:53:02.382Z,69.70
2018-11-28T05:55:30.613Z,70.01
2018-11-28T05:57:58.788Z,69.83
2018-11-28T06:00:33.022Z,69.14
2018-11-28T06:03:01.190Z,69.46
2018-11-28T06:05:29.402Z,69.85
2018-11-28T06:07:57.589Z,70.15
2018-11-28T06:10:25.773Z,69.72
2018-11-28T06:12:53.926Z,69.58
2018-11-28T06:15:22.118Z,69.45
2018-11-28T06:17:50.365Z,68.92
2018-11-28T06:20:18.545Z,69.55
2018-11-28T06:22:46.762Z,69.49
2018-11-28T06:25:16.888Z,68.97
2018-11-28T06:27:44.363Z,69.07
2018-11-28T06:30:14.597Z,69.00
2018-11-28T06:32:43.717Z,68.83
2018-11-28T06:35:12.200Z,69.83
2018-11-28T06:37:40.775Z,69.37
2018-11-28T06:40:11.766Z,69.67
2018-11-28T06:42:40.025Z,68.81
2018-11-28T06:45:10.594Z,69.33
2018-11-28T06:47:38.793Z,69.00
2018-11-28T06:50:14.852Z,68.81
2018-11-28T06:52:43.959Z,69.74
2018-11-28T06:55:13.553Z,69.47
2018-11-28T06:57:42.440Z,69.15
2018-11-28T07:00:17.818Z,69.16
2018-11-28T07:02:46.375Z,69.54
2018-11-28T07:05:14.642Z,69.31
2018-11-28T07:07:49.773Z,69.26
2018-11-28T07:10:19.013Z,69.43
2018-11-28T07:12:47.188Z,69.78
2018-11-28T07:15:16.457Z,69.43
2018-11-28T07:17:44.944Z,69.36
2018-11-28T07:20:15.124Z,69.42
2018-11-28T07:22:43.350Z,69.94
2018-11-28T07:25:12.655Z,69.71
2018-11-28T07:27:45.021Z,70.00
2018-11-28T07:30:13.005Z,68.76
2018-11-28T07:32:41.244Z,70.22
2018-11-28T07:35:10.143Z,69.17
2018-11-28T07:37:38.733Z,69.36
2018-11-28T07:40:12.548Z,70.00
2018-11-28T07:42:41.420Z,69.36
2018-11-28T07:45:11.235Z,69.29
2018-11-28T07:47:39.422Z,69.68
2018-11-28T07:50:08.929Z,69.33
2018-11-28T07:52:37.477Z,69.62
2018-11-28T07:55:07.530Z,69.13
2018-11-28T07:57:35.812Z,69.82
2018-11-28T08:00:04.804Z,69.62
2018-11-28T08:02:33.053Z,69.43
2018-11-28T08:05:01.321Z,69.58
2018-11-28T08:07:29.523Z,69.84
2018-11-28T08:09:57.747Z,69.82
2018-11-28T08:12:25.985Z,69.75
2018-11-28T08:14:54.160Z,69.47
2018-11-28T08:17:22.373Z,69.96
2018-11-28T08:19:50.590Z,69.53
2018-11-28T08:22:19.704Z,69.47
2018-11-28T08:24:47.910Z,69.65
2018-11-28T08:27:16.097Z,69.95
2018-11-28T08:29:44.315Z,70.24
2018-11-28T08:32:12.458Z,70.57
2018-11-28T08:34:40.709Z,69.46
2018-11-28T08:37:08.937Z,69.79
2018-11-28T08:39:37.120Z,69.26
2018-11-28T08:42:06.209Z,70.57
2018-11-28T08:44:34.441Z,69.62
2018-11-28T08:47:02.752Z,69.93
2018-11-28T08:49:31.181Z,70.60
2018-11-28T08:51:59.365Z,70.25
2018-11-28T08:54:27.552Z,69.79
2018-11-28T08:56:56.294Z,69.47
2018-11-28T08:59:24.516Z,69.66
2018-11-28T09:01:52.770Z,69.57
2018-11-28T09:04:21.090Z,69.79
2018-11-28T09:06:49.426Z,69.81
2018-11-28T09:09:17.716Z,70.19
2018-11-28T09:11:46.025Z,69.43
2018-11-28T09:14:14.283Z,69.77
2018-11-28T09:16:42.557Z,69.71
2018-11-28T09:19:10.713Z,69.88
2018-11-28T09:21:38.977Z,70.08
2018-11-28T09:24:07.360Z,68.99
2018-11-28T09:26:35.569Z,69.91
2018-11-28T09:29:03.718Z,68.93
2018-11-28T09:31:31.912Z,69.52
2018-11-28T09:34:00.063Z,68.98
2018-11-28T09:36:28.671Z,69.41
2018-11-28T09:38:56.861Z,70.25
2018-11-28T09:41:25.157Z,69.66
2018-11-28T09:43:53.337Z,69.91
2018-11-28T09:46:21.566Z,69.27
2018-11-28T09:48:49.797Z,69.49
2018-11-28T09:51:18.014Z,69.74
2018-11-28T09:53:46.244Z,69.48
2018-11-28T09:56:14.506Z,70.40
2018-11-28T09:58:42.720Z,70.28
2018-11-28T10:01:10.922Z,70.28
2018-11-28T10:03:39.101Z,70.30
2018-11-28T10:06:07.348Z,70.59
2018-11-28T10:08:35.541Z,71.60
2018-11-28T10:11:03.704Z,71.25
2018-11-28T10:13:31.893Z,71.57
2018-11-28T10:16:01.536Z,71.75
2018-11-28T10:18:28.260Z,71.44
2018-11-28T10:20:56.400Z,71.62
2018-11-28T10:23:24.673Z,71.61
2018-11-28T10:25:53.479Z,71.78
2018-11-28T10:28:21.672Z,72.06
2018-11-28T10:30:49.972Z,72.40
2018-11-28T10:33:18.167Z,71.31
2018-11-28T10:35:46.664Z,71.68
2018-11-28T10:38:14.674Z,71.47
2018-11-28T10:40:42.956Z,71.53
2018-11-28T10:43:11.161Z,71.10
2018-11-28T10:45:39.386Z,71.19
2018-11-28T10:48:09.325Z,71.60
2018-11-28T10:50:37.603Z,70.83
2018-11-28T10:53:06.285Z,71.18
2018-11-28T10:55:34.519Z,71.33
2018-11-28T10:58:02.689Z,71.17
2018-11-28T11:00:36.584Z,71.10
2018-11-28T11:03:11.361Z,71.05
2018-11-28T11:05:45.018Z,70.75
2018-11-28T11:08:18.564Z,70.95
2018-11-28T11:10:52.029Z,70.59
2018-11-28T11:13:25.561Z,70.95
2018-11-28T11:15:58.737Z,70.43
2018-11-28T11:18:27.807Z,70.02
2018-11-28T11:20:56.417Z,70.29
2018-11-28T11:23:25.422Z,70.44
2018-11-28T11:26:01.216Z,70.73
2018-11-28T11:28:29.388Z,69.98
2018-11-28T11:30:58.565Z,70.00
2018-11-28T11:33:26.784Z,69.76
2018-11-28T11:35:54.951Z,69.70
2018-11-28T11:38:23.181Z,69.43
2018-11-28T11:40:52.121Z,69.38
2018-11-28T11:43:20.392Z,69.31
2018-11-28T11:45:52.331Z,69.06
2018-11-28T11:48:20.465Z,69.10
2018-11-28T11:50:49.330Z,69.15
2018-11-28T11:53:17.526Z,68.94
2018-11-28T11:55:45.778Z,69.21
2018-11-28T11:58:13.924Z,68.88
2018-11-28T12:00:43.518Z,68.90
2018-11-28T12:03:12.833Z,67.99
2018-11-28T12:05:42.549Z,68.82
2018-11-28T12:08:10.728Z,68.67
2018-11-28T12:10:39.010Z,68.67
2018-11-28T12:13:07.181Z,67.89
2018-11-28T12:15:35.820Z,67.98
2018-11-28T12:18:03.660Z,68.46
2018-11-28T12:20:44.849Z,68.23
2018-11-28T12:23:13.081Z,67.68
2018-11-28T12:25:41.268Z,67.77
2018-11-28T12:28:09.448Z,67.94
2018-11-28T12:30:37.698Z,67.27
2018-11-28T12:33:06.638Z,67.29
2018-11-28T12:35:34.881Z,67.48
2018-11-28T12:38:03.207Z,67.88
2018-11-28T12:40:32.633Z,67.33
2018-11-28T12:43:01.258Z,67.31
2018-11-28T12:45:29.452Z,67.14
2018-11-28T12:47:57.609Z,67.11
2018-11-28T12:50:28.721Z,66.81
2018-11-28T12:52:58.221Z,66.61
2018-11-28T12:55:26.433Z,66.71
2018-11-28T12:57:55.584Z,66.62
2018-11-28T13:00:24.996Z,66.51
2018-11-28T13:02:53.180Z,66.75
2018-11-28T13:05:22.561Z,66.55
2018-11-28T13:07:50.780Z,67.44
2018-11-28T13:10:20.217Z,66.72
2018-11-28T13:12:49.165Z,66.40
2018-11-28T13:15:18.222Z,66.25
2018-11-28T13:17:46.400Z,66.10
2018-11-28T13:20:15.582Z,66.50
2018-11-28T13:22:43.968Z,66.40
2018-11-28T13:25:14.300Z,65.94
2018-11-28T13:27:42.818Z,65.75
2018-11-28T13:30:15.069Z,65.82
2018-11-28T13:32:43.616Z,66.02
2018-11-28T13:35:12.856Z,65.67
2018-11-28T13:37:41.417Z,66.37
2018-11-28T13:40:11.842Z,66.01
2018-11-28T13:42:40.092Z,65.59
2018-11-28T13:45:13.442Z,66.03
2018-11-28T13:47:42.446Z,66.56
2018-11-28T13:50:11.061Z,65.87
2018-11-28T13:52:39.237Z,66.28
2018-11-28T13:57:41.546Z,66.22
2018-11-28T14:00:10.190Z,66.91
2018-11-28T14:02:38.597Z,66.71
2018-11-28T14:05:08.955Z,66.72
2018-11-28T14:07:37.087Z,65.98
2018-11-28T14:10:08.673Z,66.56
2018-11-28T14:12:36.924Z,66.38
2018-11-28T14:15:07.906Z,67.34
2018-11-28T14:17:36.065Z,66.73
2018-11-28T14:20:04.237Z,66.67
2018-11-28T14:22:32.388Z,66.78
2018-11-28T14:25:00.605Z,66.46
2018-11-28T14:27:28.784Z,66.59
2018-11-28T14:29:56.958Z,67.22
2018-11-28T14:32:25.090Z,67.44
2018-11-28T14:34:54.077Z,67.96
2018-11-28T14:37:22.316Z,69.04
2018-11-28T14:39:50.461Z,69.14
2018-11-28T14:42:18.601Z,69.55
2018-11-28T14:44:46.754Z,70.41
2018-11-28T14:47:14.884Z,70.63
2018-11-28T14:49:43.076Z,70.65
2018-11-28T14:52:11.281Z,70.48
2018-11-28T14:54:39.400Z,70.84
2018-11-28T14:57:07.565Z,70.07
2018-11-28T14:59:40.359Z,70.43
2018-11-28T15:02:03.949Z,71.00
2018-11-28T15:04:32.117Z,70.41
2018-11-28T15:07:01.463Z,70.37
2018-11-28T15:09:36.437Z,69.73
2018-11-28T15:12:11.598Z,71.17
2018-11-28T15:14:35.744Z,70.40
2018-11-28T15:17:03.913Z,70.91
2018-11-28T15:19:32.107Z,70.65
2018-11-28T15:22:00.281Z,70.41
2018-11-28T15:24:28.478Z,71.16
2018-11-28T15:26:56.633Z,71.37
2018-11-28T15:29:24.813Z,71.46
2018-11-28T15:31:53.017Z,71.60
2018-11-28T15:34:21.218Z,72.18
2018-11-28T15:36:49.360Z,71.33
2018-11-28T15:39:17.509Z,71.46
2018-11-28T15:41:45.659Z,71.98
2018-11-28T15:44:13.865Z,71.84
2018-11-28T15:46:42.105Z,71.98
2018-11-28T15:49:10.256Z,71.38
2018-11-28T15:51:38.409Z,72.16
2018-11-28T15:54:06.633Z,72.23
2018-11-28T15:56:34.821Z,72.37
2018-11-28T15:59:02.982Z,72.64
2018-11-28T16:01:31.145Z,73.50
2018-11-28T16:03:59.289Z,73.46
2018-11-28T16:06:27.446Z,74.30
2018-11-28T16:08:55.638Z,76.13
2018-11-28T16:11:24.450Z,76.21
2018-11-28T16:13:52.628Z,75.69
2018-11-28T16:16:20.764Z,76.91
2018-11-28T16:18:49.028Z,76.12
2018-11-28T16:21:17.277Z,76.69
2018-11-28T16:23:45.461Z,76.90
2018-11-28T16:26:13.661Z,78.12
2018-11-28T16:28:41.823Z,78.37
2018-11-28T16:31:09.995Z,78.21
2018-11-28T16:33:38.140Z,77.39
2018-11-28T16:36:06.337Z,78.31
2018-11-28T16:38:34.468Z,79.70
2018-11-28T16:41:02.617Z,79.48
2018-11-28T16:43:30.810Z,80.14
2018-11-28T16:45:58.993Z,79.57
2018-11-28T16:48:27.164Z,80.63
2018-11-28T16:50:55.316Z,79.84
2018-11-28T16:53:23.477Z,80.75
2018-11-28T16:55:51.683Z,80.41
2018-11-28T16:58:19.853Z,80.68
2018-11-28T17:00:47.988Z,80.66
2018-11-28T17:03:16.236Z,80.90
2018-11-28T17:05:44.379Z,80.56
2018-11-28T17:08:12.592Z,80.31
2018-11-28T17:10:40.776Z,80.25
2018-11-28T17:13:08.936Z,81.30
2018-11-28T17:15:37.074Z,81.58
2018-11-28T17:18:06.057Z,81.47
2018-11-28T17:20:34.211Z,81.70
2018-11-28T17:23:02.438Z,81.83
2018-11-28T17:25:32.185Z,81.73
2018-11-28T17:28:00.481Z,82.40
2018-11-28T17:30:30.746Z,82.01
2018-11-28T17:32:58.942Z,81.67
2018-11-28T17:35:27.076Z,82.46
2018-11-28T17:37:55.229Z,82.15
2018-11-28T17:40:27.497Z,82.69
2018-11-28T17:42:57.825Z,82.21
2018-11-28T17:45:26.390Z,82.59
2018-11-28T17:47:54.580Z,83.13
2018-11-28T17:50:23.859Z,82.71
2018-11-28T17:53:10.163Z,83.57
2018-11-28T17:55:43.418Z,83.78
2018-11-28T17:58:10.910Z,84.08
2018-11-28T18:00:39.208Z,83.61
2018-11-28T18:03:07.397Z,84.12
2018-11-28T18:05:35.556Z,83.25
2018-11-28T18:08:03.725Z,83.68
2018-11-28T18:10:31.973Z,83.71
2018-11-28T18:13:07.753Z,83.74
2018-11-28T18:15:35.892Z,83.76
2018-11-28T18:18:04.550Z,84.05
2018-11-28T18:20:32.715Z,83.44
2018-11-28T18:23:00.878Z,83.53
2018-11-28T18:25:30.442Z,83.77
2018-11-28T18:27:58.580Z,83.23
2018-11-28T18:30:26.750Z,83.18
2018-11-28T18:32:55.009Z,83.71
2018-11-28T18:35:23.164Z,83.21
2018-11-28T18:37:51.328Z,83.51
2018-11-28T18:40:19.545Z,83.37
2018-11-28T18:42:47.709Z,83.34
2018-11-28T18:45:20.528Z,83.19
2018-11-28T18:47:48.908Z,83.09
2018-11-28T18:50:17.221Z,83.33
2018-11-28T18:52:45.386Z,83.33
2018-11-28T18:55:16.718Z,83.79
2018-11-28T18:57:43.115Z,83.04
2018-11-28T19:00:13.717Z,83.26
2018-11-28T19:02:42.748Z,83.89
2018-11-28T19:05:10.257Z,83.42
2018-11-28T19:07:38.404Z,83.55
2018-11-28T19:10:09.661Z,83.70
2018-11-28T19:12:37.825Z,83.44
2018-11-28T19:15:09.073Z,83.37
2018-11-28T19:17:37.254Z,82.92
2018-11-28T19:20:08.293Z,83.57
2018-11-28T19:22:36.437Z,83.31
2018-11-28T19:25:06.564Z,83.58
2018-11-28T19:27:34.728Z,83.09
2018-11-28T19:30:02.952Z,82.75
2018-11-28T19:32:31.183Z,82.74
2018-11-28T19:34:59.353Z,82.99
2018-11-28T19:37:27.494Z,83.29
2018-11-28T19:39:55.659Z,82.74
2018-11-28T19:42:23.852Z,82.36
2018-11-28T19:44:52.126Z,82.39
2018-11-28T19:47:20.241Z,82.24
2018-11-28T19:49:48.393Z,82.35
2018-11-28T19:52:16.624Z,82.91
2018-11-28T19:54:44.814Z,82.44
2018-11-28T19:57:12.976Z,82.13
2018-11-28T19:59:41.250Z,82.05
2018-11-28T20:02:09.433Z,82.54
2018-11-28T20:04:37.609Z,82.18
2018-11-28T20:07:06.062Z,82.34
2018-11-28T20:09:34.290Z,82.50
2018-11-28T20:12:02.452Z,82.48
2018-11-28T20:14:30.652Z,81.95
2018-11-28T20:16:58.998Z,81.90
2018-11-28T20:19:27.482Z,82.50
2018-11-28T20:21:55.669Z,81.90
2018-11-28T20:24:23.862Z,81.63
2018-11-28T20:26:52.066Z,82.15
2018-11-28T20:29:20.390Z,82.53
2018-11-28T20:31:48.709Z,81.98
2018-11-28T20:34:18.001Z,81.77
2018-11-28T20:36:47.008Z,81.71
2018-11-28T20:39:15.594Z,81.90
2018-11-28T20:41:44.435Z,81.90
2018-11-28T20:44:12.818Z,81.61
2018-11-28T20:46:41.463Z,81.92
2018-11-28T20:49:09.839Z,82.30
2018-11-28T20:51:38.422Z,81.58
2018-11-28T20:54:07.147Z,81.66
2018-11-28T20:56:36.432Z,82.17
2018-11-28T20:59:05.474Z,82.24
2018-11-28T21:01:33.777Z,81.99
2018-11-28T21:04:01.967Z,82.39
2018-11-28T21:06:30.118Z,81.61
2018-11-28T21:08:58.297Z,81.44
2018-11-28T21:11:26.440Z,82.01
2018-11-28T21:13:54.593Z,81.73
2018-11-28T21:16:22.749Z,82.08
2018-11-28T21:18:50.905Z,81.81
2018-11-28T21:21:19.064Z,82.06
2018-11-28T21:23:47.213Z,81.73
2018-11-28T21:26:15.386Z,82.21
2018-11-28T21:28:43.589Z,82.30
2018-11-28T21:31:11.767Z,82.53
2018-11-28T21:33:39.994Z,81.62
2018-11-28T21:36:08.336Z,81.86
2018-11-28T21:38:36.453Z,82.32
2018-11-28T21:41:04.923Z,82.30
2018-11-28T21:43:33.086Z,81.73
2018-11-28T21:46:01.303Z,82.01
2018-11-28T21:48:29.470Z,82.13
2018-11-28T21:50:57.626Z,81.99
2018-11-28T21:53:25.849Z,81.94
2018-11-28T21:55:54.036Z,82.41
2018-11-28T21:58:22.188Z,82.11
2018-11-28T22:00:50.334Z,81.81
2018-11-28T22:03:18.472Z,82.52
2018-11-28T22:05:46.682Z,82.51
2018-11-28T22:08:14.888Z,81.63
2018-11-28T22:10:43.024Z,82.96
2018-11-28T22:13:11.181Z,81.90
2018-11-28T22:15:39.333Z,82.33
2018-11-28T22:18:07.554Z,82.15
2018-11-28T22:20:35.708Z,81.77
2018-11-28T22:23:03.870Z,82.49
2018-11-28T22:25:32.113Z,82.77
2018-11-28T22:28:00.251Z,81.70
2018-11-28T22:30:29.060Z,81.89
2018-11-28T22:32:57.817Z,81.72
2018-11-28T22:35:26.053Z,81.56
2018-11-28T22:37:54.228Z,82.54
2018-11-28T22:40:25.481Z,82.04
2018-11-28T22:42:53.629Z,82.08
2018-11-28T22:45:29.713Z,82.55
2018-11-28T22:47:57.860Z,82.08
2018-11-28T22:50:26.017Z,82.18
2018-11-28T22:52:54.180Z,82.72
2018-11-28T22:55:22.332Z,82.11
2018-11-28T22:57:50.495Z,82.34
2018-11-28T23:00:24.879Z,82.24
2018-11-28T23:03:05.838Z,82.90
2018-11-28T23:05:37.921Z,82.77
2018-11-28T23:08:08.057Z,82.16
2018-11-28T23:10:36.829Z,82.18
2018-11-28T23:13:05.401Z,82.07
2018-11-28T23:15:33.630Z,82.99
2018-11-28T23:18:01.797Z,82.28
2018-11-28T23:20:29.977Z,82.78
2018-11-28T23:22:58.105Z,83.12
2018-11-28T23:25:26.293Z,82.47
2018-11-28T23:27:54.508Z,82.04
2018-11-28T23:30:29.334Z,82.70
2018-11-28T23:32:57.517Z,81.99
2018-11-28T23:35:25.738Z,82.78
2018-11-28T23:37:53.909Z,82.25
2018-11-28T23:40:22.865Z,82.56
2018-11-28T23:42:51.622Z,81.99
2018-11-28T23:45:19.805Z,82.70
2018-11-28T23:47:48.131Z,82.99
2018-11-28T23:50:18.109Z,81.98
2018-11-28T23:52:46.637Z,82.46
2018-11-28T23:55:30.768Z,83.06
2018-11-28T23:57:58.907Z,82.37
